createdAt,value
2022-07-29T00:01:04.701Z,17.60
2022-07-29T00:03:31.839Z,17.60
2022-07-29T00:05:58.931Z,17.60
2022-07-29T00:08:30.050Z,17.60
2022-07-29T00:10:56.942Z,17.50
2022-07-29T00:13:32.249Z,17.50
2022-07-29T00:16:04.364Z,17.50
2022-07-29T00:18:32.999Z,17.60
2022-07-29T00:21:00.455Z,17.60
2022-07-29T00:23:27.428Z,17.60
2022-07-29T00:25:54.436Z,17.50
2022-07-29T00:28:21.393Z,17.40
2022-07-29T00:30:48.339Z,17.40
2022-07-29T00:33:15.267Z,17.40
2022-07-29T00:35:44.838Z,17.40
2022-07-29T00:38:17.111Z,17.30
2022-07-29T00:40:45.344Z,17.30
2022-07-29T00:43:14.742Z,17.30
2022-07-29T00:45:42.846Z,17.20
2022-07-29T00:48:10.333Z,17.20
2022-07-29T00:50:38.475Z,17.20
2022-07-29T00:53:08.085Z,17.20
2022-07-29T00:55:36.400Z,17.20
2022-07-29T00:58:03.665Z,17.20
2022-07-29T01:00:31.277Z,17.10
2022-07-29T01:02:58.549Z,17.10
2022-07-29T01:05:50.811Z,17.00
2022-07-29T01:08:18.432Z,17.00
2022-07-29T01:10:47.930Z,16.90
2022-07-29T01:13:16.952Z,17.00
2022-07-29T01:16:00.668Z,17.00
2022-07-29T01:18:39.151Z,17.00
2022-07-29T01:21:37.746Z,17.00
2022-07-29T01:24:51.232Z,17.00
2022-07-29T01:27:34.492Z,16.90
2022-07-29T01:30:05.119Z,16.90
2022-07-29T01:32:37.281Z,16.90
2022-07-29T01:35:13.447Z,17.00
2022-07-29T01:38:13.730Z,17.00
2022-07-29T01:40:52.819Z,17.00
2022-07-29T01:43:34.115Z,17.00
2022-07-29T01:46:06.776Z,17.10
2022-07-29T01:48:57.324Z,17.10
2022-07-29T01:51:37.336Z,17.10
2022-07-29T01:54:22.370Z,17.10
2022-07-29T01:56:53.223Z,17.10
2022-07-29T01:59:22.107Z,17.10
2022-07-29T02:01:51.326Z,17.10
2022-07-29T02:04:29.181Z,17.00
2022-07-29T02:07:03.292Z,16.90
2022-07-29T02:09:32.960Z,16.90
2022-07-29T02:12:02.375Z,16.90
2022-07-29T02:14:40.394Z,16.90
2022-07-29T02:17:07.709Z,16.90
2022-07-29T02:19:35.421Z,16.80
2022-07-29T02:22:03.168Z,16.80
2022-07-29T02:24:32.190Z,16.70
2022-07-29T02:27:02.006Z,16.70
2022-07-29T02:29:31.275Z,16.60
2022-07-29T02:32:00.427Z,16.70
2022-07-29T02:34:29.313Z,16.60
2022-07-29T02:36:57.507Z,16.60
2022-07-29T02:39:26.797Z,16.60
2022-07-29T02:41:59.988Z,16.50
2022-07-29T02:44:32.616Z,16.40
2022-07-29T02:47:17.357Z,16.30
2022-07-29T02:52:48.744Z,16.20
2022-07-29T03:08:03.461Z,16.00
2022-07-29T03:23:00.912Z,15.70
2022-07-29T03:25:28.335Z,15.60
2022-07-29T03:27:55.462Z,15.60
2022-07-29T03:30:22.660Z,15.50
2022-07-29T03:32:52.679Z,15.50
2022-07-29T03:35:21.412Z,15.40
2022-07-29T03:37:48.933Z,15.40
2022-07-29T03:40:27.086Z,15.10
2022-07-29T03:42:57.203Z,15.10
2022-07-29T03:45:25.035Z,15.00
2022-07-29T03:48:00.670Z,15.00
2022-07-29T03:50:31.229Z,15.00
2022-07-29T03:52:59.001Z,15.10
2022-07-29T03:55:27.556Z,15.10
2022-07-29T03:57:56.272Z,15.10
2022-07-29T04:00:25.531Z,15.10
2022-07-29T04:02:52.596Z,15.10
2022-07-29T04:05:20.265Z,15.10
2022-07-29T04:07:50.444Z,15.10
2022-07-29T04:10:30.401Z,15.10
2022-07-29T04:13:00.455Z,15.00
2022-07-29T04:15:31.078Z,14.90
2022-07-29T04:17:59.684Z,14.90
2022-07-29T04:20:26.854Z,14.90
2022-07-29T04:22:53.825Z,15.00
2022-07-29T04:25:21.024Z,15.10
2022-07-29T04:28:03.274Z,15.10
2022-07-29T04:30:32.001Z,15.10
2022-07-29T04:32:59.536Z,15.20
2022-07-29T04:35:26.567Z,15.30
2022-07-29T04:37:53.640Z,15.40
2022-07-29T04:40:20.912Z,15.40
2022-07-29T04:42:48.061Z,15.40
2022-07-29T04:45:16.735Z,15.40
2022-07-29T04:47:50.013Z,15.30
2022-07-29T04:50:17.587Z,15.40
2022-07-29T04:52:44.537Z,15.40
2022-07-29T04:55:11.788Z,15.50
2022-07-29T04:57:38.704Z,15.40
2022-07-29T05:00:07.297Z,15.50
2022-07-29T05:02:34.276Z,15.50
2022-07-29T05:05:01.190Z,15.60
2022-07-29T05:07:28.177Z,15.60
2022-07-29T05:09:57.787Z,15.70
2022-07-29T05:12:26.226Z,15.70
2022-07-29T05:14:54.342Z,15.90
2022-07-29T05:17:21.434Z,16.10
2022-07-29T05:19:48.287Z,16.20
2022-07-29T05:22:15.200Z,16.40
2022-07-29T05:24:42.269Z,16.50
2022-07-29T05:27:11.631Z,16.60
2022-07-29T05:29:45.936Z,16.80
2022-07-29T05:32:14.213Z,17.00
2022-07-29T05:34:51.263Z,17.20
2022-07-29T05:37:20.667Z,17.30
2022-07-29T05:39:50.694Z,17.60
2022-07-29T05:42:25.452Z,17.80
2022-07-29T05:44:53.243Z,18.10
2022-07-29T05:47:20.321Z,18.30
2022-07-29T05:49:47.308Z,18.40
2022-07-29T05:52:14.335Z,18.60
2022-07-29T05:54:41.418Z,18.70
2022-07-29T05:57:08.632Z,18.70
2022-07-29T05:59:38.853Z,18.80
2022-07-29T06:02:06.371Z,18.80
2022-07-29T06:04:34.789Z,18.90
2022-07-29T06:07:02.685Z,18.90
2022-07-29T06:09:29.970Z,19.00
2022-07-29T06:11:58.239Z,19.10
2022-07-29T06:14:26.067Z,19.20
2022-07-29T06:16:54.148Z,19.50
2022-07-29T06:19:21.209Z,19.70
2022-07-29T06:21:48.987Z,19.90
2022-07-29T06:24:16.818Z,20.00
2022-07-29T06:26:44.414Z,20.10
2022-07-29T06:29:11.999Z,20.20
2022-07-29T06:31:39.590Z,20.40
2022-07-29T06:34:07.265Z,20.60
2022-07-29T06:36:38.134Z,20.80
2022-07-29T06:39:11.691Z,21.00
2022-07-29T06:41:39.128Z,21.10
2022-07-29T06:44:06.055Z,21.10
2022-07-29T06:46:33.626Z,21.20
2022-07-29T06:49:02.798Z,21.30
2022-07-29T06:51:30.195Z,21.50
2022-07-29T06:54:02.712Z,21.80
2022-07-29T06:56:42.697Z,21.90
2022-07-29T06:59:11.331Z,21.80
2022-07-29T07:01:41.327Z,21.70
2022-07-29T07:04:09.956Z,21.60
2022-07-29T07:06:38.027Z,21.60
2022-07-29T07:09:05.205Z,21.70
2022-07-29T07:11:32.216Z,21.40
2022-07-29T07:14:02.983Z,21.40
2022-07-29T07:16:30.957Z,21.40
2022-07-29T07:18:57.910Z,21.50
2022-07-29T07:21:24.887Z,21.70
2022-07-29T07:23:51.900Z,21.90
2022-07-29T07:26:18.874Z,22.30
2022-07-29T07:28:45.841Z,22.50
2022-07-29T07:31:13.441Z,22.60
2022-07-29T07:33:40.341Z,22.60
2022-07-29T07:36:07.233Z,22.60
2022-07-29T07:38:34.266Z,22.60
2022-07-29T07:41:01.981Z,22.60
2022-07-29T07:43:28.881Z,22.70
2022-07-29T07:45:55.915Z,22.40
2022-07-29T07:48:22.996Z,22.20
2022-07-29T07:50:50.344Z,22.10
2022-07-29T07:53:17.525Z,22.10
2022-07-29T07:56:09.535Z,22.10
2022-07-29T07:58:31.993Z,22.10
2022-07-29T08:00:58.970Z,22.10
2022-07-29T08:03:25.898Z,22.00
2022-07-29T08:05:52.895Z,22.00
2022-07-29T08:08:20.015Z,21.90
2022-07-29T08:10:53.232Z,21.90
2022-07-29T08:13:28.280Z,22.00
2022-07-29T08:15:58.974Z,22.10
2022-07-29T08:18:28.331Z,22.10
2022-07-29T08:20:56.062Z,22.30
2022-07-29T08:23:24.115Z,22.60
2022-07-29T08:25:52.437Z,22.80
2022-07-29T08:28:22.171Z,23.00
2022-07-29T08:30:53.448Z,23.30
2022-07-29T08:33:20.475Z,23.60
2022-07-29T08:35:47.394Z,23.80
2022-07-29T08:38:14.738Z,24.00
2022-07-29T08:40:41.767Z,24.20
2022-07-29T08:43:10.057Z,24.30
2022-07-29T08:45:48.938Z,24.20
2022-07-29T08:48:19.604Z,24.40
2022-07-29T08:50:48.659Z,24.40
2022-07-29T08:53:18.681Z,24.80
2022-07-29T09:06:00.264Z,25.90
2022-07-29T10:22:52.933Z,29.60
2022-07-29T11:17:19.376Z,31.50
2022-07-29T11:34:34.860Z,31.70
2022-07-29T11:38:23.498Z,31.70
2022-07-29T11:41:42.826Z,32.30
2022-07-29T11:45:44.231Z,32.00
2022-07-29T11:52:06.838Z,32.30
2022-07-29T11:59:33.100Z,31.70
2022-07-29T12:02:37.511Z,31.60
2022-07-29T12:05:11.994Z,31.90
2022-07-29T12:08:04.922Z,31.80
2022-07-29T12:10:33.218Z,31.90
2022-07-29T12:36:06.781Z,30.30
2022-07-29T12:38:41.451Z,29.90
2022-07-29T12:43:36.855Z,29.30
2022-07-29T12:46:17.187Z,29.20
2022-07-29T12:48:45.340Z,29.30
2022-07-29T12:51:15.176Z,29.60
2022-07-29T12:53:42.443Z,29.70
2022-07-29T12:56:40.529Z,29.60
2022-07-29T12:59:33.747Z,29.60
2022-07-29T13:02:01.444Z,29.40
2022-07-29T13:04:31.254Z,29.30
2022-07-29T13:07:08.511Z,29.20
2022-07-29T13:09:43.895Z,29.20
2022-07-29T13:12:14.428Z,29.20
2022-07-29T13:14:47.510Z,29.30
2022-07-29T13:17:17.756Z,29.20
2022-07-29T13:19:52.205Z,29.20
2022-07-29T13:22:24.078Z,29.20
2022-07-29T13:25:00.161Z,29.20
2022-07-29T13:27:30.706Z,29.00
2022-07-29T13:30:00.526Z,29.00
2022-07-29T13:32:30.658Z,28.70
2022-07-29T13:35:00.416Z,28.50
2022-07-29T13:37:30.720Z,28.40
2022-07-29T13:39:58.415Z,28.40
2022-07-29T13:42:25.934Z,28.30
2022-07-29T13:44:53.402Z,28.40
2022-07-29T13:47:21.540Z,28.40
2022-07-29T13:49:49.634Z,28.50
2022-07-29T13:52:17.022Z,28.50
2022-07-29T13:54:47.522Z,28.70
2022-07-29T13:57:15.586Z,29.10
2022-07-29T13:59:43.461Z,29.30
2022-07-29T14:02:13.173Z,29.40
2022-07-29T14:04:42.605Z,29.30
2022-07-29T14:09:43.687Z,30.20
2022-07-29T14:12:11.046Z,31.00
2022-07-29T14:14:38.114Z,31.60
2022-07-29T14:17:07.611Z,32.10
2022-07-29T14:19:40.005Z,32.70
2022-07-29T14:22:09.017Z,33.00
2022-07-29T14:24:37.791Z,33.40
2022-07-29T14:27:07.236Z,33.70
2022-07-29T14:29:38.168Z,33.40
2022-07-29T14:32:10.209Z,33.40
2022-07-29T14:34:38.826Z,33.60
2022-07-29T14:37:07.262Z,34.00
2022-07-29T14:39:42.588Z,34.40
2022-07-29T14:42:12.841Z,34.20
2022-07-29T14:44:42.644Z,34.00
2022-07-29T14:47:10.481Z,34.40
2022-07-29T14:49:37.592Z,34.60
2022-07-29T14:52:05.139Z,35.00
2022-07-29T17:59:06.668Z,28.20
2022-07-29T18:01:34.279Z,28.30
2022-07-29T18:04:02.848Z,27.90
2022-07-29T18:06:29.872Z,27.70
2022-07-29T18:08:56.888Z,27.50
2022-07-29T18:11:24.063Z,27.30
2022-07-29T18:13:51.341Z,27.20
2022-07-29T18:16:18.917Z,27.10
2022-07-29T18:18:46.287Z,27.10
2022-07-29T18:21:13.575Z,27.00
2022-07-29T18:23:40.668Z,27.00
2022-07-29T18:26:07.758Z,26.90
2022-07-29T18:28:34.792Z,26.70
2022-07-29T18:31:02.516Z,26.80
2022-07-29T18:33:29.508Z,26.80
2022-07-29T18:36:07.632Z,26.60
2022-07-29T18:38:40.936Z,26.50
2022-07-29T18:41:08.035Z,26.20
2022-07-29T18:43:35.101Z,26.00
2022-07-29T18:46:03.155Z,25.80
2022-07-29T18:48:32.143Z,25.80
2022-07-29T18:50:58.987Z,25.90
2022-07-29T18:53:25.930Z,25.50
2022-07-29T18:55:55.357Z,25.30
2022-07-29T18:58:24.289Z,25.00
2022-07-29T19:00:51.216Z,24.80
2022-07-29T19:03:18.218Z,24.60
2022-07-29T19:05:45.123Z,24.50
2022-07-29T19:08:12.210Z,24.20
2022-07-29T19:10:48.647Z,24.10
2022-07-29T19:13:15.759Z,23.90
2022-07-29T19:15:44.334Z,23.80
2022-07-29T19:18:13.308Z,23.80
2022-07-29T19:20:41.907Z,23.80
2022-07-29T19:23:09.303Z,23.90
2022-07-29T19:25:37.431Z,23.90
2022-07-29T19:28:20.411Z,23.60
2022-07-29T19:30:47.350Z,23.50
2022-07-29T19:33:17.369Z,23.30
2022-07-29T19:35:45.817Z,23.30
2022-07-29T19:38:13.666Z,23.20
2022-07-29T19:40:40.696Z,23.00
2022-07-29T19:43:51.658Z,23.10
2022-07-29T19:45:55.516Z,23.00
2022-07-29T19:48:22.529Z,22.80
2022-07-29T19:50:49.461Z,22.80
2022-07-29T19:53:16.373Z,22.70
2022-07-29T19:55:43.440Z,22.60
2022-07-29T19:58:10.293Z,22.50
2022-07-29T20:00:37.552Z,22.50
2022-07-29T20:03:07.095Z,22.40
2022-07-29T20:05:34.269Z,22.40
2022-07-29T20:08:04.735Z,22.30
2022-07-29T20:10:32.729Z,22.20
2022-07-29T20:12:59.888Z,22.10
2022-07-29T20:15:27.139Z,22.00
2022-07-29T20:17:57.153Z,22.00
2022-07-29T20:20:25.640Z,21.90
2022-07-29T20:22:53.562Z,21.80
2022-07-29T20:25:20.441Z,21.80
2022-07-29T20:27:49.537Z,21.80
2022-07-29T20:30:16.614Z,21.70
2022-07-29T20:32:45.258Z,21.70
2022-07-29T20:35:13.357Z,21.70
2022-07-29T20:37:52.281Z,21.70
2022-07-29T20:40:27.159Z,21.60
2022-07-29T20:42:55.500Z,21.50
2022-07-29T20:45:23.692Z,21.50
2022-07-29T20:47:52.058Z,21.40
2022-07-29T20:50:23.653Z,21.40
2022-07-29T20:52:51.779Z,21.40
2022-07-29T20:55:18.786Z,21.30
2022-07-29T20:57:45.718Z,21.30
2022-07-29T21:00:13.395Z,21.20
2022-07-29T21:02:40.409Z,21.20
2022-07-29T21:05:07.727Z,21.20
2022-07-29T21:07:34.708Z,21.10
2022-07-29T21:10:01.773Z,21.10
2022-07-29T21:12:30.156Z,21.00
2022-07-29T21:14:57.820Z,21.00
2022-07-29T21:17:25.175Z,21.00
2022-07-29T21:19:53.227Z,20.90
2022-07-29T21:22:22.162Z,20.80
2022-07-29T21:24:49.539Z,20.70
2022-07-29T21:27:38.428Z,20.60
2022-07-29T21:30:08.507Z,20.50
2022-07-29T21:32:35.490Z,20.50
2022-07-29T21:35:02.517Z,20.30
2022-07-29T21:37:29.466Z,20.30
2022-07-29T21:39:56.457Z,20.30
2022-07-29T21:42:23.452Z,20.20
2022-07-29T21:44:51.718Z,20.00
2022-07-29T21:47:18.891Z,20.00
2022-07-29T21:49:50.198Z,20.00
2022-07-29T21:52:18.269Z,20.10
2022-07-29T21:54:45.205Z,20.10
2022-07-29T21:57:12.140Z,20.10
2022-07-29T21:59:39.194Z,20.10
2022-07-29T22:02:06.147Z,20.10
2022-07-29T22:04:34.704Z,20.10
2022-07-29T22:07:02.479Z,20.10
2022-07-29T22:09:29.613Z,20.00
2022-07-29T22:11:56.478Z,19.80
2022-07-29T22:14:23.641Z,19.80
2022-07-29T22:16:52.621Z,19.70
2022-07-29T22:19:27.656Z,19.50
2022-07-29T22:21:56.866Z,19.40
2022-07-29T22:24:23.835Z,19.40
2022-07-29T22:26:50.791Z,19.40
2022-07-29T22:29:18.866Z,19.30
2022-07-29T22:31:45.837Z,19.20
2022-07-29T22:34:15.346Z,19.10
2022-07-29T22:36:43.330Z,19.10
2022-07-29T22:39:10.206Z,19.00
2022-07-29T22:41:37.340Z,18.80
2022-07-29T22:44:04.531Z,18.80
2022-07-29T22:46:34.057Z,18.80
2022-07-29T22:49:01.468Z,18.80
2022-07-29T22:51:28.441Z,18.70
2022-07-29T22:53:55.314Z,18.60
2022-07-29T22:56:22.631Z,18.50
2022-07-29T22:58:50.227Z,18.40
2022-07-29T23:01:17.894Z,18.30
2022-07-29T23:04:05.253Z,18.40
2022-07-29T23:06:32.318Z,18.30
2022-07-29T23:08:59.176Z,18.40
2022-07-29T23:11:26.111Z,18.50
2022-07-29T23:13:53.183Z,18.50
2022-07-29T23:16:26.363Z,18.30
2022-07-29T23:18:54.819Z,18.20
2022-07-29T23:21:21.876Z,18.10
2022-07-29T23:23:49.361Z,18.00
2022-07-29T23:26:17.134Z,18.00
2022-07-29T23:28:45.395Z,18.00
2022-07-29T23:31:13.558Z,17.80
2022-07-29T23:33:41.693Z,17.80
2022-07-29T23:36:08.608Z,17.80
2022-07-29T23:38:36.546Z,17.70
2022-07-29T23:41:08.874Z,17.70
2022-07-29T23:43:37.458Z,17.60
2022-07-29T23:46:04.994Z,17.60
2022-07-29T23:48:34.052Z,17.50
2022-07-29T23:51:01.182Z,17.50
2022-07-29T23:53:28.761Z,17.40
2022-07-29T23:55:56.533Z,17.40
2022-07-29T23:58:23.782Z,17.30
